Waddington, New York
Current Conditions -  °F | °C
As of 4:53 AM on Friday 19 Dec 2014 (Local Time) from KMSS Reporting Station
Overcast Overcast  
Wind Chill: 13°   Ceiling: 1600
Heat Index: 23°   Visibility: 10mi
Dew Point: 17°   Wind: 9mph
Humidity: 78%   Direction: 300°WNW
Pressure: 30.04"   Gusts: NA
Location:  44.86°N, 75.2°W
Report Text: KMSS 190953Z AUTO 30008KT 10SM OVC016 M05/M08 A3004 RMK AO2 SLP179 T10501083
Loading
Personal Weather Stations






























Interactive Weather Map New forecast layout! Learn more

10-Day Weather Forecast

Advertisements
Track Severe Weather on mobile